createdAt,value
2017-07-21T00:00:01.042Z,57.30
2017-07-21T00:02:29.306Z,57.30
2017-07-21T00:04:57.574Z,57.30
2017-07-21T00:07:26.648Z,57.20
2017-07-21T00:09:54.975Z,57.20
2017-07-21T00:12:24.043Z,57.20
2017-07-21T00:14:52.302Z,57.10
2017-07-21T00:17:20.632Z,57.10
2017-07-21T00:19:48.961Z,56.90
2017-07-21T00:22:17.233Z,56.90
2017-07-21T00:24:45.525Z,56.80
2017-07-21T00:27:13.781Z,56.80
2017-07-21T00:29:42.065Z,56.90
2017-07-21T00:32:10.311Z,56.80
2017-07-21T00:34:38.661Z,56.70
2017-07-21T00:37:07.770Z,57.10
2017-07-21T00:39:36.820Z,57.00
2017-07-21T00:42:05.072Z,57.00
2017-07-21T00:44:33.320Z,57.00
2017-07-21T00:47:01.633Z,57.00
2017-07-21T00:49:29.909Z,56.70
2017-07-21T00:51:58.244Z,56.90
2017-07-21T00:54:26.588Z,56.90
2017-07-21T00:56:54.928Z,56.70
2017-07-21T00:59:23.236Z,56.60
2017-07-21T01:01:51.461Z,56.70
2017-07-21T01:04:19.705Z,56.50
2017-07-21T01:06:48.082Z,56.50
2017-07-21T01:09:16.366Z,56.70
2017-07-21T01:11:44.627Z,56.40
2017-07-21T01:14:13.715Z,56.40
2017-07-21T01:16:42.061Z,56.40
2017-07-21T01:19:10.307Z,56.40
2017-07-21T01:21:38.618Z,56.20
2017-07-21T01:24:06.955Z,56.20
2017-07-21T01:26:35.225Z,56.00
2017-07-21T01:29:03.477Z,55.90
2017-07-21T01:31:31.875Z,55.70
2017-07-21T01:34:00.165Z,55.50
2017-07-21T01:36:28.561Z,55.40
2017-07-21T01:38:56.802Z,55.50
2017-07-21T01:41:25.070Z,55.30
2017-07-21T01:43:53.369Z,55.20
2017-07-21T01:46:21.662Z,55.20
2017-07-21T01:48:49.970Z,55.10
2017-07-21T01:51:18.241Z,55.20
2017-07-21T01:53:46.568Z,55.10
2017-07-21T01:56:14.964Z,55.00
2017-07-21T01:58:43.219Z,55.20
2017-07-21T02:01:11.685Z,55.20
2017-07-21T02:03:39.979Z,55.00
2017-07-21T02:06:08.262Z,55.30
2017-07-21T02:08:36.617Z,55.70
2017-07-21T02:11:04.972Z,55.60
2017-07-21T02:13:33.314Z,55.70
2017-07-21T02:16:01.580Z,55.90
2017-07-21T02:18:29.892Z,56.10
2017-07-21T02:20:58.925Z,56.30
2017-07-21T02:23:27.240Z,56.00
2017-07-21T02:25:55.509Z,56.20
2017-07-21T02:28:23.796Z,56.50
2017-07-21T02:30:52.072Z,56.70
2017-07-21T02:33:20.359Z,57.00
2017-07-21T02:35:48.602Z,57.10
2017-07-21T02:38:16.920Z,57.20
2017-07-21T02:40:45.988Z,57.60
2017-07-21T02:43:14.417Z,57.60
2017-07-21T02:45:42.688Z,57.70
2017-07-21T02:48:11.053Z,57.90
2017-07-21T02:50:40.094Z,58.30
2017-07-21T02:53:08.405Z,58.30
2017-07-21T02:55:36.891Z,58.40
2017-07-21T02:58:05.126Z,58.40
2017-07-21T03:00:33.461Z,58.70
2017-07-21T03:03:01.788Z,58.60
2017-07-21T03:05:30.061Z,58.60
2017-07-21T03:07:58.421Z,58.70
2017-07-21T03:10:26.706Z,59.00
2017-07-21T03:12:55.829Z,59.10
2017-07-21T03:15:24.127Z,59.10
2017-07-21T03:17:52.448Z,59.20
2017-07-21T03:20:20.729Z,59.40
2017-07-21T03:23:01.030Z,59.30
2017-07-21T03:25:30.208Z,59.70
2017-07-21T03:27:58.653Z,59.70
2017-07-21T03:30:26.923Z,59.80
2017-07-21T03:32:56.121Z,59.80
2017-07-21T03:35:24.416Z,59.80
2017-07-21T03:37:52.749Z,59.80
2017-07-21T03:40:21.089Z,59.90
2017-07-21T03:42:49.485Z,60.00
2017-07-21T03:45:17.869Z,60.10
2017-07-21T03:47:46.267Z,60.20
2017-07-21T03:50:15.379Z,60.00
2017-07-21T03:52:43.728Z,60.00
2017-07-21T03:55:12.160Z,60.00
2017-07-21T03:57:40.640Z,60.00
2017-07-21T04:00:09.054Z,59.90
2017-07-21T04:02:37.433Z,59.90
2017-07-21T04:05:05.839Z,59.90
2017-07-21T04:07:34.209Z,59.80
2017-07-21T04:10:02.634Z,60.00
2017-07-21T04:12:30.988Z,60.00
2017-07-21T04:15:04.197Z,59.90
2017-07-21T04:17:32.542Z,60.10
2017-07-21T04:20:07.710Z,60.20
2017-07-21T04:22:36.090Z,60.30
2017-07-21T04:25:04.599Z,60.40
2017-07-21T04:27:32.916Z,60.40
2017-07-21T04:30:01.513Z,60.50
2017-07-21T04:32:29.970Z,60.60
2017-07-21T04:34:59.184Z,61.00
2017-07-21T04:37:28.514Z,61.00
2017-07-21T04:39:56.852Z,60.80
2017-07-21T04:42:30.144Z,60.80
2017-07-21T04:44:58.585Z,60.90
2017-07-21T04:47:28.002Z,60.60
2017-07-21T04:49:56.225Z,60.80
2017-07-21T04:52:28.957Z,60.70
2017-07-21T04:54:57.288Z,60.20
2017-07-21T04:57:29.742Z,60.10
2017-07-21T04:59:58.045Z,60.10
2017-07-21T05:02:26.545Z,60.00
2017-07-21T05:04:54.879Z,59.70
2017-07-21T05:07:34.365Z,58.90
2017-07-21T05:10:03.707Z,58.30
2017-07-21T05:12:36.978Z,58.10
2017-07-21T05:15:06.132Z,57.00
2017-07-21T05:17:34.391Z,57.00
2017-07-21T05:20:02.953Z,56.70
2017-07-21T05:22:31.245Z,56.30
2017-07-21T05:24:59.514Z,55.40
2017-07-21T05:27:27.770Z,54.80
2017-07-21T05:29:56.020Z,54.10
2017-07-21T05:32:24.309Z,54.20
2017-07-21T05:34:52.645Z,54.00
2017-07-21T05:37:20.910Z,53.60
2017-07-21T05:39:49.145Z,53.10
2017-07-21T05:42:17.394Z,52.70
2017-07-21T05:44:45.709Z,51.90
2017-07-21T05:47:17.050Z,51.50
2017-07-21T05:49:46.124Z,50.80
2017-07-21T05:52:21.224Z,50.30
2017-07-21T05:54:49.569Z,50.20
2017-07-21T05:57:17.829Z,50.10
2017-07-21T05:59:46.089Z,50.40
2017-07-21T06:02:15.139Z,49.80
2017-07-21T06:05:06.154Z,49.80
2017-07-21T06:07:34.397Z,49.70
2017-07-21T06:10:02.677Z,49.60
2017-07-21T06:12:32.977Z,49.30
2017-07-21T06:15:02.313Z,48.70
2017-07-21T06:17:30.641Z,48.70
2017-07-21T06:19:59.711Z,48.00
2017-07-21T06:22:28.004Z,48.00
2017-07-21T06:24:57.037Z,47.30
2017-07-21T06:27:28.361Z,47.20
2017-07-21T06:29:56.671Z,47.00
2017-07-21T06:32:33.965Z,46.40
2017-07-21T06:35:02.209Z,47.00
2017-07-21T06:37:30.489Z,46.30
2017-07-21T06:40:17.308Z,46.00
2017-07-21T06:42:45.561Z,44.20
2017-07-21T06:45:17.770Z,45.90
2017-07-21T06:47:46.013Z,46.30
2017-07-21T06:50:23.190Z,46.40
2017-07-21T06:52:51.467Z,45.70
2017-07-21T06:55:19.754Z,45.90
2017-07-21T06:57:48.008Z,46.20
2017-07-21T07:00:20.108Z,46.30
2017-07-21T07:02:48.382Z,46.40
2017-07-21T07:05:16.681Z,46.00
2017-07-21T07:07:45.009Z,45.80
2017-07-21T07:10:13.341Z,44.70
2017-07-21T07:12:41.593Z,45.00
2017-07-21T07:15:09.896Z,44.90
2017-07-21T07:17:38.192Z,44.50
2017-07-21T07:20:06.478Z,43.90
2017-07-21T07:22:34.892Z,43.80
2017-07-21T07:25:03.132Z,43.50
2017-07-21T07:27:32.170Z,41.80
2017-07-21T07:30:00.424Z,41.70
2017-07-21T07:32:28.771Z,43.00
2017-07-21T07:34:57.779Z,43.30
2017-07-21T07:37:26.122Z,43.20
2017-07-21T07:39:54.397Z,42.40
2017-07-21T07:42:22.677Z,40.90
2017-07-21T07:44:50.923Z,39.00
2017-07-21T07:47:19.201Z,37.50
2017-07-21T07:49:47.448Z,37.20
2017-07-21T07:52:15.852Z,37.20
2017-07-21T07:54:44.109Z,37.70
2017-07-21T07:57:12.545Z,37.40
2017-07-21T07:59:41.673Z,35.40
2017-07-21T08:02:09.953Z,35.40
2017-07-21T08:04:38.223Z,34.60
2017-07-21T08:07:06.540Z,34.70
2017-07-21T08:09:34.839Z,34.20
2017-07-21T08:12:03.162Z,33.60
2017-07-21T08:14:31.433Z,33.70
2017-07-21T08:16:59.720Z,32.30
2017-07-21T08:19:28.199Z,32.50
2017-07-21T08:21:56.629Z,32.60
2017-07-21T08:24:24.891Z,32.20
2017-07-21T08:26:53.241Z,31.40
2017-07-21T08:29:21.561Z,31.80
2017-07-21T08:31:50.694Z,30.30
2017-07-21T08:34:19.068Z,30.40
2017-07-21T08:36:47.513Z,29.60
2017-07-21T08:39:16.626Z,30.10
2017-07-21T08:41:45.112Z,30.00
2017-07-21T08:44:13.518Z,29.50
2017-07-21T08:46:41.861Z,29.80
2017-07-21T08:49:10.185Z,28.60
2017-07-21T08:51:38.704Z,28.20
2017-07-21T08:54:07.165Z,28.10
2017-07-21T08:56:36.225Z,28.20
2017-07-21T08:59:04.572Z,28.20
2017-07-21T09:01:32.961Z,28.70
2017-07-21T09:04:01.319Z,28.40
2017-07-21T09:06:29.709Z,29.10
2017-07-21T09:08:58.064Z,29.20
2017-07-21T09:11:27.101Z,30.30
2017-07-21T09:13:55.378Z,29.90
2017-07-21T09:16:23.636Z,29.80
2017-07-21T09:18:51.932Z,29.50
2017-07-21T09:21:20.289Z,29.50
2017-07-21T09:23:48.585Z,29.20
2017-07-21T09:26:16.870Z,29.70
2017-07-21T09:28:46.077Z,29.40
2017-07-21T09:31:14.385Z,29.40
2017-07-21T09:33:42.712Z,29.50
2017-07-21T09:36:11.081Z,29.30
2017-07-21T09:38:39.416Z,29.80
2017-07-21T09:41:07.821Z,29.80
2017-07-21T09:43:36.100Z,29.80
2017-07-21T09:46:04.421Z,29.80
2017-07-21T09:48:32.690Z,29.60
2017-07-21T09:51:00.986Z,28.80
2017-07-21T09:53:29.373Z,28.60
2017-07-21T09:55:57.708Z,28.10
2017-07-21T09:58:26.069Z,28.10
2017-07-21T10:00:54.373Z,27.70
2017-07-21T10:03:22.615Z,28.80
2017-07-21T10:05:50.961Z,28.60
2017-07-21T10:08:19.993Z,28.30
2017-07-21T10:10:48.433Z,28.30
2017-07-21T10:13:16.710Z,28.20
2017-07-21T10:15:45.829Z,28.00
2017-07-21T10:18:14.106Z,28.00
2017-07-21T10:20:42.420Z,27.90
2017-07-21T10:23:10.757Z,28.20
2017-07-21T10:25:39.038Z,28.50
2017-07-21T10:28:07.336Z,27.00
2017-07-21T10:30:35.688Z,27.30
2017-07-21T10:33:04.011Z,26.50
2017-07-21T10:35:32.373Z,26.70
2017-07-21T10:38:00.625Z,25.50
2017-07-21T10:40:28.881Z,26.30
2017-07-21T10:42:57.197Z,25.70
2017-07-21T10:45:25.483Z,25.60
2017-07-21T10:47:53.716Z,25.60
2017-07-21T10:50:22.012Z,24.70
2017-07-21T10:52:50.290Z,24.40
2017-07-21T10:55:18.611Z,25.80
2017-07-21T10:57:46.950Z,24.90
2017-07-21T11:00:15.193Z,25.10
2017-07-21T11:02:43.538Z,24.60
2017-07-21T11:05:11.885Z,24.10
2017-07-21T11:07:40.225Z,24.70
2017-07-21T11:10:08.578Z,23.50
2017-07-21T11:12:36.854Z,23.10
2017-07-21T11:15:05.203Z,21.90
2017-07-21T11:17:33.484Z,21.60
2017-07-21T11:20:01.753Z,21.80
2017-07-21T11:22:30.146Z,20.80
2017-07-21T11:24:58.409Z,20.40
2017-07-21T11:27:26.759Z,20.10
2017-07-21T11:29:55.020Z,20.20
2017-07-21T11:32:23.271Z,20.00
2017-07-21T11:34:51.592Z,19.70
2017-07-21T11:37:19.857Z,18.90
2017-07-21T11:39:48.171Z,18.50
2017-07-21T11:42:16.447Z,17.70
2017-07-21T11:44:44.740Z,17.40
2017-07-21T11:47:13.806Z,16.90
2017-07-21T11:49:42.081Z,16.60
2017-07-21T11:52:10.459Z,16.60
2017-07-21T11:54:38.969Z,16.60
2017-07-21T11:57:08.000Z,16.20
2017-07-21T11:59:36.605Z,16.10
2017-07-21T12:02:06.678Z,16.60
2017-07-21T12:04:35.016Z,16.50
2017-07-21T12:07:03.449Z,16.80
2017-07-21T12:09:32.601Z,16.50
2017-07-21T12:12:00.944Z,16.50
2017-07-21T12:14:29.203Z,16.20
2017-07-21T12:16:57.977Z,16.30
2017-07-21T12:19:26.249Z,16.50
2017-07-21T12:21:55.349Z,17.30
2017-07-21T12:24:23.984Z,17.30
2017-07-21T12:26:52.589Z,17.50
2017-07-21T12:29:21.077Z,18.20
2017-07-21T12:31:49.624Z,18.70
2017-07-21T12:34:18.153Z,19.20
2017-07-21T12:36:46.478Z,19.80
2017-07-21T12:39:14.869Z,21.00
2017-07-21T12:41:43.578Z,21.10
2017-07-21T12:44:11.859Z,22.10
2017-07-21T12:46:40.410Z,22.80
2017-07-21T12:49:08.867Z,23.20
2017-07-21T12:51:37.198Z,24.00
2017-07-21T12:54:05.746Z,25.00
2017-07-21T12:56:34.145Z,24.50
2017-07-21T12:59:02.720Z,24.80
2017-07-21T13:01:31.492Z,24.10
2017-07-21T13:03:59.821Z,23.20
2017-07-21T13:06:28.277Z,23.20
2017-07-21T13:08:56.713Z,22.90
2017-07-21T13:11:25.001Z,22.70
2017-07-21T13:13:53.320Z,23.30
2017-07-21T13:16:21.750Z,24.10
2017-07-21T13:18:50.208Z,24.50
2017-07-21T13:21:18.633Z,25.20
2017-07-21T13:23:46.909Z,25.80
2017-07-21T13:26:16.068Z,27.00
2017-07-21T13:28:44.429Z,26.70
2017-07-21T13:31:12.927Z,27.20
2017-07-21T13:33:42.155Z,27.60
2017-07-21T13:36:10.529Z,27.60
2017-07-21T13:38:38.826Z,28.20
2017-07-21T13:41:07.161Z,28.30
2017-07-21T13:43:35.461Z,28.80
2017-07-21T13:46:03.861Z,29.50
2017-07-21T13:48:32.868Z,29.20
2017-07-21T13:51:01.121Z,29.20
2017-07-21T13:53:29.369Z,29.50
2017-07-21T13:55:58.538Z,30.00
2017-07-21T13:58:26.772Z,30.00
2017-07-21T14:00:55.950Z,30.30
2017-07-21T14:03:24.225Z,30.30
2017-07-21T14:05:53.713Z,31.30
2017-07-21T14:08:23.412Z,31.60
2017-07-21T14:10:52.941Z,31.60
2017-07-21T14:13:22.718Z,32.30
2017-07-21T14:15:51.921Z,32.70
2017-07-21T14:18:20.838Z,32.50
2017-07-21T14:20:49.780Z,32.40
2017-07-21T14:23:18.423Z,33.60
2017-07-21T14:25:47.123Z,34.10
2017-07-21T14:28:15.428Z,35.20
2017-07-21T14:30:43.821Z,34.50
2017-07-21T14:33:12.114Z,34.10
2017-07-21T14:35:41.233Z,34.60
2017-07-21T14:38:09.596Z,34.60
2017-07-21T14:40:37.856Z,34.40
2017-07-21T14:43:06.901Z,34.40
2017-07-21T14:45:35.164Z,34.40
2017-07-21T14:48:04.225Z,34.40
2017-07-21T14:50:32.467Z,34.40
2017-07-21T14:53:00.757Z,34.50
2017-07-21T14:55:29.034Z,34.90
2017-07-21T14:57:57.289Z,34.20
2017-07-21T15:00:25.666Z,34.60
2017-07-21T15:02:54.685Z,34.30
2017-07-21T15:05:23.121Z,34.30
2017-07-21T15:07:51.397Z,35.10
2017-07-21T15:10:19.683Z,34.70
2017-07-21T15:12:48.100Z,34.50
2017-07-21T15:15:16.473Z,34.20
2017-07-21T15:17:44.767Z,34.20
2017-07-21T15:20:13.035Z,34.30
2017-07-21T15:22:41.294Z,34.30
2017-07-21T15:25:09.817Z,34.20
2017-07-21T15:27:38.846Z,33.80
2017-07-21T15:30:07.113Z,33.80
2017-07-21T15:32:35.452Z,35.00
2017-07-21T15:35:03.749Z,34.40
2017-07-21T15:37:32.189Z,34.40
2017-07-21T15:40:01.349Z,34.60
2017-07-21T15:42:29.605Z,34.70
2017-07-21T15:44:57.981Z,34.90
2017-07-21T15:47:26.275Z,35.30
2017-07-21T15:49:54.617Z,34.80
2017-07-21T15:52:23.636Z,35.10
2017-07-21T15:54:51.905Z,35.10
2017-07-21T15:57:20.217Z,35.50
2017-07-21T15:59:48.529Z,35.50
2017-07-21T16:02:16.829Z,35.70
2017-07-21T16:04:45.096Z,35.90
2017-07-21T16:07:14.121Z,36.40
2017-07-21T16:09:42.693Z,36.40
2017-07-21T16:12:11.074Z,36.10
2017-07-21T16:14:39.321Z,36.50
2017-07-21T16:17:08.469Z,36.90
2017-07-21T16:19:36.807Z,36.80
2017-07-21T16:22:05.277Z,36.90
2017-07-21T16:24:33.612Z,36.70
2017-07-21T16:27:01.998Z,36.80
2017-07-21T16:29:30.402Z,37.30
2017-07-21T16:31:58.707Z,37.50
2017-07-21T16:34:27.125Z,37.60
2017-07-21T16:36:55.559Z,37.60
2017-07-21T16:39:24.009Z,38.00
2017-07-21T16:41:52.303Z,37.90
2017-07-21T16:44:20.645Z,37.30
2017-07-21T16:46:48.957Z,37.10
2017-07-21T16:49:17.240Z,37.30
2017-07-21T16:51:45.505Z,37.60
2017-07-21T16:54:13.892Z,37.40
2017-07-21T16:56:42.164Z,37.40
2017-07-21T16:59:10.572Z,37.80
2017-07-21T17:01:38.848Z,38.30
2017-07-21T17:04:07.192Z,38.50
2017-07-21T17:06:35.618Z,38.60
2017-07-21T17:09:03.857Z,38.00
2017-07-21T17:11:32.149Z,38.10
2017-07-21T17:14:00.389Z,38.00
2017-07-21T17:16:28.719Z,38.00
2017-07-21T17:18:56.968Z,38.10
2017-07-21T17:21:25.292Z,38.00
2017-07-21T17:23:54.369Z,37.90
2017-07-21T17:26:22.814Z,37.80
2017-07-21T17:28:51.097Z,38.60
2017-07-21T17:31:19.404Z,38.00
2017-07-21T17:33:47.721Z,37.80
2017-07-21T17:36:15.994Z,37.80
2017-07-21T17:38:44.257Z,38.40
2017-07-21T17:41:12.903Z,38.30
2017-07-21T17:43:41.178Z,38.70
2017-07-21T17:46:09.441Z,38.70
2017-07-21T17:48:37.867Z,39.00
2017-07-21T17:51:06.287Z,39.40
2017-07-21T17:53:34.632Z,39.70
2017-07-21T17:56:02.943Z,39.80
2017-07-21T17:58:31.199Z,40.10
2017-07-21T18:00:59.450Z,40.00
2017-07-21T18:03:28.466Z,40.50
2017-07-21T18:05:56.744Z,40.50
2017-07-21T18:08:25.261Z,40.70
2017-07-21T18:10:53.521Z,41.10
2017-07-21T18:13:21.774Z,41.10
2017-07-21T18:15:50.073Z,41.50
2017-07-21T18:18:18.339Z,41.60
2017-07-21T18:20:46.608Z,41.60
2017-07-21T18:23:14.848Z,41.80
2017-07-21T18:25:43.164Z,41.70
2017-07-21T18:28:11.400Z,41.60
2017-07-21T18:30:40.467Z,42.40
2017-07-21T18:33:08.758Z,41.70
2017-07-21T18:35:37.381Z,41.90
2017-07-21T18:38:05.789Z,42.30
2017-07-21T18:40:34.243Z,42.40
2017-07-21T18:43:02.593Z,42.60
2017-07-21T18:45:30.971Z,42.80
2017-07-21T18:48:00.322Z,42.90
2017-07-21T18:50:28.613Z,43.20
2017-07-21T18:52:57.061Z,43.30
2017-07-21T18:55:25.321Z,43.40
2017-07-21T18:57:53.672Z,43.60
2017-07-21T19:00:22.809Z,44.00
2017-07-21T19:02:51.060Z,43.90
2017-07-21T19:05:19.334Z,44.20
2017-07-21T19:07:47.625Z,44.20
2017-07-21T19:10:15.905Z,44.30
2017-07-21T19:12:44.173Z,44.60
2017-07-21T19:15:12.484Z,45.00
2017-07-21T19:17:40.729Z,45.10
2017-07-21T19:20:09.017Z,45.10
2017-07-21T19:22:37.380Z,45.20
2017-07-21T19:25:06.433Z,45.70
2017-07-21T19:27:34.694Z,45.70
2017-07-21T19:30:02.995Z,45.70
2017-07-21T19:32:31.345Z,46.00
2017-07-21T19:34:59.655Z,46.30
2017-07-21T19:37:27.947Z,46.30
2017-07-21T19:39:57.056Z,47.00
2017-07-21T19:42:25.334Z,47.00
2017-07-21T19:44:53.635Z,47.40
2017-07-21T19:47:21.873Z,47.70
2017-07-21T19:49:50.156Z,48.00
2017-07-21T19:52:18.434Z,48.40
2017-07-21T19:54:46.733Z,48.50
2017-07-21T19:57:15.939Z,48.80
2017-07-21T19:59:44.187Z,48.70
2017-07-21T20:02:12.521Z,48.80
2017-07-21T20:04:40.783Z,48.80
2017-07-21T20:07:09.097Z,48.80
2017-07-21T20:09:37.400Z,49.80
2017-07-21T20:12:05.694Z,49.10
2017-07-21T20:14:33.994Z,49.20
2017-07-21T20:17:02.249Z,49.50
2017-07-21T20:19:30.501Z,49.50
2017-07-21T20:21:58.790Z,49.70
2017-07-21T20:24:27.077Z,49.60
2017-07-21T20:26:55.388Z,49.40
2017-07-21T20:29:24.452Z,49.80
2017-07-21T20:31:52.725Z,49.70
2017-07-21T20:34:21.010Z,49.90
2017-07-21T20:36:49.267Z,50.00
2017-07-21T20:39:17.545Z,50.00
2017-07-21T20:41:45.797Z,50.10
2017-07-21T20:44:14.172Z,50.20
2017-07-21T20:46:42.410Z,50.40
2017-07-21T20:49:11.585Z,50.30
2017-07-21T20:51:39.850Z,50.30
2017-07-21T20:54:08.183Z,50.30
2017-07-21T20:56:36.428Z,50.50
2017-07-21T20:59:05.450Z,51.20
2017-07-21T21:01:33.971Z,50.50
2017-07-21T21:04:02.218Z,50.70
2017-07-21T21:06:30.454Z,50.70
2017-07-21T21:08:58.750Z,50.50
2017-07-21T21:11:27.231Z,50.50
2017-07-21T21:13:55.484Z,50.60
2017-07-21T21:16:25.569Z,51.10
2017-07-21T21:18:53.900Z,51.60
2017-07-21T21:21:22.199Z,51.00
2017-07-21T21:23:50.447Z,51.20
2017-07-21T21:26:18.931Z,51.40
2017-07-21T21:28:47.237Z,51.50
2017-07-21T21:31:15.469Z,51.30
2017-07-21T21:33:44.564Z,51.50
2017-07-21T21:36:13.596Z,51.70
2017-07-21T21:38:41.893Z,51.60
2017-07-21T21:41:10.143Z,51.70
2017-07-21T21:43:39.212Z,51.90
2017-07-21T21:46:07.600Z,51.90
2017-07-21T21:48:35.839Z,51.80
2017-07-21T21:51:04.071Z,51.60
2017-07-21T21:53:32.312Z,51.70
2017-07-21T21:56:01.422Z,51.80
2017-07-21T21:58:29.688Z,51.80
2017-07-21T22:00:57.951Z,52.00
2017-07-21T22:03:26.239Z,52.40
2017-07-21T22:05:55.249Z,52.30
2017-07-21T22:08:23.492Z,52.30
2017-07-21T22:10:51.833Z,52.30
2017-07-21T22:13:20.163Z,52.70
2017-07-21T22:15:55.225Z,52.90
2017-07-21T22:18:23.471Z,52.90
2017-07-21T22:20:51.761Z,52.60
2017-07-21T22:23:20.192Z,52.40
2017-07-21T22:25:48.581Z,52.60
2017-07-21T22:28:16.952Z,53.80
2017-07-21T22:30:45.252Z,53.90
2017-07-21T22:33:13.525Z,54.20
2017-07-21T22:35:41.901Z,54.50
2017-07-21T22:38:10.161Z,54.10
2017-07-21T22:40:38.405Z,54.50
2017-07-21T22:43:06.644Z,54.70
2017-07-21T22:45:34.953Z,55.30
2017-07-21T22:48:03.197Z,56.70
2017-07-21T22:50:31.477Z,57.80
2017-07-21T22:52:59.754Z,58.80
2017-07-21T22:55:27.992Z,61.30
2017-07-21T22:57:57.080Z,65.10
2017-07-21T23:00:25.337Z,65.10
2017-07-21T23:02:53.657Z,66.60
2017-07-21T23:05:21.966Z,68.20
2017-07-21T23:07:50.228Z,69.80
2017-07-21T23:10:18.481Z,71.50
2017-07-21T23:12:46.749Z,72.60
2017-07-21T23:15:15.010Z,74.00
2017-07-21T23:17:44.072Z,76.60
2017-07-21T23:20:12.312Z,76.60
2017-07-21T23:22:40.577Z,78.30
2017-07-21T23:25:08.823Z,78.80
2017-07-21T23:27:37.838Z,81.30
2017-07-21T23:30:06.250Z,81.20
2017-07-21T23:32:34.514Z,82.20
2017-07-21T23:35:02.776Z,82.10
2017-07-21T23:37:31.037Z,82.70
2017-07-21T23:39:59.307Z,84.20
2017-07-21T23:42:27.618Z,84.90
2017-07-21T23:44:55.892Z,86.00
2017-07-21T23:47:24.170Z,86.70
2017-07-21T23:49:52.417Z,87.30
2017-07-21T23:52:20.695Z,88.00
2017-07-21T23:54:48.937Z,88.40
2017-07-21T23:57:17.194Z,88.30
2017-07-21T23:59:45.438Z,88.50
